sensor_id;sensor_type;location;lat;lon;timestamp;temperature;humidity
7658;DHT22;8462;53.156;8.220;2022-08-21T00:00:15;18.60;71.90
7658;DHT22;8462;53.156;8.220;2022-08-21T00:02:47;18.60;72.10
7658;DHT22;8462;53.156;8.220;2022-08-21T00:05:15;18.50;72.10
7658;DHT22;8462;53.156;8.220;2022-08-21T00:07:42;18.50;72.10
7658;DHT22;8462;53.156;8.220;2022-08-21T00:10:09;18.50;72.20
7658;DHT22;8462;53.156;8.220;2022-08-21T00:12:37;18.50;72.30
7658;DHT22;8462;53.156;8.220;2022-08-21T00:15:05;18.50;72.20
7658;DHT22;8462;53.156;8.220;2022-08-21T00:17:33;18.50;72.30
7658;DHT22;8462;53.156;8.220;2022-08-21T00:20:02;18.50;72.30
7658;DHT22;8462;53.156;8.220;2022-08-21T00:22:30;18.50;72.40
7658;DHT22;8462;53.156;8.220;2022-08-21T00:24:57;18.50;72.40
7658;DHT22;8462;53.156;8.220;2022-08-21T00:27:24;18.50;72.50
7658;DHT22;8462;53.156;8.220;2022-08-21T00:29:50;18.50;72.30
7658;DHT22;8462;53.156;8.220;2022-08-21T00:32:22;18.50;72.20
7658;DHT22;8462;53.156;8.220;2022-08-21T00:34:50;18.50;72.20
7658;DHT22;8462;53.156;8.220;2022-08-21T00:37:19;18.50;72.20
7658;DHT22;8462;53.156;8.220;2022-08-21T00:39:46;18.50;72.20
7658;DHT22;8462;53.156;8.220;2022-08-21T00:42:14;18.50;72.30
7658;DHT22;8462;53.156;8.220;2022-08-21T00:44:42;18.50;72.30
7658;DHT22;8462;53.156;8.220;2022-08-21T00:47:09;18.50;72.50
7658;DHT22;8462;53.156;8.220;2022-08-21T00:49:36;18.50;72.40
7658;DHT22;8462;53.156;8.220;2022-08-21T00:52:06;18.50;72.40
7658;DHT22;8462;53.156;8.220;2022-08-21T00:54:36;18.50;72.50
7658;DHT22;8462;53.156;8.220;2022-08-21T00:57:10;18.50;72.50
7658;DHT22;8462;53.156;8.220;2022-08-21T00:59:40;18.50;72.50
7658;DHT22;8462;53.156;8.220;2022-08-21T01:02:10;18.40;72.40
7658;DHT22;8462;53.156;8.220;2022-08-21T01:04:37;18.40;72.40
7658;DHT22;8462;53.156;8.220;2022-08-21T01:07:04;18.40;72.50
7658;DHT22;8462;53.156;8.220;2022-08-21T01:09:32;18.40;72.40
7658;DHT22;8462;53.156;8.220;2022-08-21T01:12:01;18.40;72.40
7658;DHT22;8462;53.156;8.220;2022-08-21T01:14:28;18.40;72.70
7658;DHT22;8462;53.156;8.220;2022-08-21T01:16:57;18.40;72.60
7658;DHT22;8462;53.156;8.220;2022-08-21T01:19:27;18.40;72.50
7658;DHT22;8462;53.156;8.220;2022-08-21T01:21:56;18.30;72.60
7658;DHT22;8462;53.156;8.220;2022-08-21T01:24:25;18.30;72.60
7658;DHT22;8462;53.156;8.220;2022-08-21T01:26:53;18.30;72.40
7658;DHT22;8462;53.156;8.220;2022-08-21T01:29:28;18.30;72.20
7658;DHT22;8462;53.156;8.220;2022-08-21T01:31:56;18.30;72.20
7658;DHT22;8462;53.156;8.220;2022-08-21T01:34:23;18.30;72.10
7658;DHT22;8462;53.156;8.220;2022-08-21T01:36:50;18.30;72.30
7658;DHT22;8462;53.156;8.220;2022-08-21T01:39:19;18.20;72.20
7658;DHT22;8462;53.156;8.220;2022-08-21T01:41:46;18.20;72.60
7658;DHT22;8462;53.156;8.220;2022-08-21T01:44:13;18.10;72.70
7658;DHT22;8462;53.156;8.220;2022-08-21T01:46:40;18.10;72.60
7658;DHT22;8462;53.156;8.220;2022-08-21T01:49:07;18.20;72.50
7658;DHT22;8462;53.156;8.220;2022-08-21T01:51:34;18.20;72.60
7658;DHT22;8462;53.156;8.220;2022-08-21T01:54:02;18.10;72.80
7658;DHT22;8462;53.156;8.220;2022-08-21T01:56:36;18.10;72.70
7658;DHT22;8462;53.156;8.220;2022-08-21T01:59:03;18.10;72.70
7658;DHT22;8462;53.156;8.220;2022-08-21T02:01:30;18.10;72.60
7658;DHT22;8462;53.156;8.220;2022-08-21T02:03:57;18.10;72.70
7658;DHT22;8462;53.156;8.220;2022-08-21T02:06:25;18.10;72.80
7658;DHT22;8462;53.156;8.220;2022-08-21T02:08:53;18.00;72.90
7658;DHT22;8462;53.156;8.220;2022-08-21T02:11:20;18.00;73.20
7658;DHT22;8462;53.156;8.220;2022-08-21T02:13:48;18.00;73.20
7658;DHT22;8462;53.156;8.220;2022-08-21T02:16:15;18.00;73.40
7658;DHT22;8462;53.156;8.220;2022-08-21T02:18:42;17.90;73.40
7658;DHT22;8462;53.156;8.220;2022-08-21T02:21:09;18.00;73.40
7658;DHT22;8462;53.156;8.220;2022-08-21T02:23:36;18.00;73.40
7658;DHT22;8462;53.156;8.220;2022-08-21T02:26:07;18.00;73.40
7658;DHT22;8462;53.156;8.220;2022-08-21T02:28:35;18.00;73.50
7658;DHT22;8462;53.156;8.220;2022-08-21T02:31:05;18.00;73.80
7658;DHT22;8462;53.156;8.220;2022-08-21T02:33:32;18.00;73.70
7658;DHT22;8462;53.156;8.220;2022-08-21T02:35:59;18.10;73.50
7658;DHT22;8462;53.156;8.220;2022-08-21T02:38:30;18.10;73.40
7658;DHT22;8462;53.156;8.220;2022-08-21T02:41:00;18.10;73.30
7658;DHT22;8462;53.156;8.220;2022-08-21T02:43:27;18.20;73.00
7658;DHT22;8462;53.156;8.220;2022-08-21T02:45:55;18.20;73.80
7658;DHT22;8462;53.156;8.220;2022-08-21T02:48:26;18.20;72.80
7658;DHT22;8462;53.156;8.220;2022-08-21T02:50:55;18.20;72.60
7658;DHT22;8462;53.156;8.220;2022-08-21T02:53:22;18.20;72.60
7658;DHT22;8462;53.156;8.220;2022-08-21T02:55:51;18.10;73.00
7658;DHT22;8462;53.156;8.220;2022-08-21T02:58:23;18.00;73.20
7658;DHT22;8462;53.156;8.220;2022-08-21T03:00:50;18.00;73.70
7658;DHT22;8462;53.156;8.220;2022-08-21T03:03:18;17.90;73.90
7658;DHT22;8462;53.156;8.220;2022-08-21T03:05:48;17.90;74.00
7658;DHT22;8462;53.156;8.220;2022-08-21T03:08:15;17.90;74.30
7658;DHT22;8462;53.156;8.220;2022-08-21T03:10:44;17.90;74.20
7658;DHT22;8462;53.156;8.220;2022-08-21T03:13:13;17.90;74.10
7658;DHT22;8462;53.156;8.220;2022-08-21T03:15:41;17.90;74.10
7658;DHT22;8462;53.156;8.220;2022-08-21T03:18:09;17.90;74.10
7658;DHT22;8462;53.156;8.220;2022-08-21T03:20:39;17.90;74.10
7658;DHT22;8462;53.156;8.220;2022-08-21T03:23:08;17.90;74.10
7658;DHT22;8462;53.156;8.220;2022-08-21T03:25:35;17.90;74.10
7658;DHT22;8462;53.156;8.220;2022-08-21T03:28:05;17.90;73.80
7658;DHT22;8462;53.156;8.220;2022-08-21T03:30:32;17.90;74.00
7658;DHT22;8462;53.156;8.220;2022-08-21T03:33:00;17.90;74.20
7658;DHT22;8462;53.156;8.220;2022-08-21T03:35:27;17.90;73.90
7658;DHT22;8462;53.156;8.220;2022-08-21T03:37:55;17.90;73.70
7658;DHT22;8462;53.156;8.220;2022-08-21T03:40:24;17.90;73.80
7658;DHT22;8462;53.156;8.220;2022-08-21T03:42:51;17.90;73.70
7658;DHT22;8462;53.156;8.220;2022-08-21T03:45:18;17.80;73.60
7658;DHT22;8462;53.156;8.220;2022-08-21T03:47:54;17.80;73.80
7658;DHT22;8462;53.156;8.220;2022-08-21T03:50:23;17.80;74.30
7658;DHT22;8462;53.156;8.220;2022-08-21T03:52:51;17.80;74.40
7658;DHT22;8462;53.156;8.220;2022-08-21T03:55:18;17.70;74.70
7658;DHT22;8462;53.156;8.220;2022-08-21T03:57:46;17.80;74.70
7658;DHT22;8462;53.156;8.220;2022-08-21T04:00:16;17.70;74.40
7658;DHT22;8462;53.156;8.220;2022-08-21T04:02:45;17.70;74.20
7658;DHT22;8462;53.156;8.220;2022-08-21T04:05:13;17.70;74.50
7658;DHT22;8462;53.156;8.220;2022-08-21T04:07:53;17.70;74.60
7658;DHT22;8462;53.156;8.220;2022-08-21T04:10:20;17.70;74.90
7658;DHT22;8462;53.156;8.220;2022-08-21T04:12:48;17.60;74.90
7658;DHT22;8462;53.156;8.220;2022-08-21T04:15:15;17.60;75.40
7658;DHT22;8462;53.156;8.220;2022-08-21T04:17:42;17.60;75.40
7658;DHT22;8462;53.156;8.220;2022-08-21T04:20:09;17.60;75.40
7658;DHT22;8462;53.156;8.220;2022-08-21T04:22:36;17.60;75.40
7658;DHT22;8462;53.156;8.220;2022-08-21T04:25:04;17.60;75.40
7658;DHT22;8462;53.156;8.220;2022-08-21T04:27:31;17.50;75.40
7658;DHT22;8462;53.156;8.220;2022-08-21T04:29:59;17.60;75.40
7658;DHT22;8462;53.156;8.220;2022-08-21T04:32:26;17.60;75.50
7658;DHT22;8462;53.156;8.220;2022-08-21T04:34:58;17.50;75.80
7658;DHT22;8462;53.156;8.220;2022-08-21T04:37:25;17.60;75.90
7658;DHT22;8462;53.156;8.220;2022-08-21T04:39:52;17.60;75.90
7658;DHT22;8462;53.156;8.220;2022-08-21T04:42:19;17.60;75.70
7658;DHT22;8462;53.156;8.220;2022-08-21T04:44:48;17.60;75.50
7658;DHT22;8462;53.156;8.220;2022-08-21T04:47:16;17.60;75.40
7658;DHT22;8462;53.156;8.220;2022-08-21T04:49:43;17.60;75.40
7658;DHT22;8462;53.156;8.220;2022-08-21T04:52:11;17.70;75.50
7658;DHT22;8462;53.156;8.220;2022-08-21T04:54:40;17.70;75.50
7658;DHT22;8462;53.156;8.220;2022-08-21T04:57:09;17.80;75.50
7658;DHT22;8462;53.156;8.220;2022-08-21T04:59:40;17.80;75.40
7658;DHT22;8462;53.156;8.220;2022-08-21T05:02:09;17.90;75.30
7658;DHT22;8462;53.156;8.220;2022-08-21T05:04:41;17.90;75.00
7658;DHT22;8462;53.156;8.220;2022-08-21T05:07:14;18.00;74.90
7658;DHT22;8462;53.156;8.220;2022-08-21T05:09:42;18.10;74.60
7658;DHT22;8462;53.156;8.220;2022-08-21T05:12:09;18.20;74.40
7658;DHT22;8462;53.156;8.220;2022-08-21T05:14:36;18.30;74.20
7658;DHT22;8462;53.156;8.220;2022-08-21T05:17:04;18.50;74.10
7658;DHT22;8462;53.156;8.220;2022-08-21T05:19:31;18.90;74.30
7658;DHT22;8462;53.156;8.220;2022-08-21T05:21:59;19.60;72.30
7658;DHT22;8462;53.156;8.220;2022-08-21T05:24:26;20.30;70.00
7658;DHT22;8462;53.156;8.220;2022-08-21T05:26:53;21.10;66.80
7658;DHT22;8462;53.156;8.220;2022-08-21T05:29:20;21.80;65.70
7658;DHT22;8462;53.156;8.220;2022-08-21T05:31:48;22.50;63.30
7658;DHT22;8462;53.156;8.220;2022-08-21T05:34:18;23.00;60.70
7658;DHT22;8462;53.156;8.220;2022-08-21T05:36:45;23.60;59.80
7658;DHT22;8462;53.156;8.220;2022-08-21T05:39:14;24.10;58.60
7658;DHT22;8462;53.156;8.220;2022-08-21T05:41:41;24.50;57.40
7658;DHT22;8462;53.156;8.220;2022-08-21T05:44:08;25.00;56.40
7658;DHT22;8462;53.156;8.220;2022-08-21T05:46:36;25.50;54.60
7658;DHT22;8462;53.156;8.220;2022-08-21T05:49:03;25.90;53.60
7658;DHT22;8462;53.156;8.220;2022-08-21T05:51:30;26.50;53.10
7658;DHT22;8462;53.156;8.220;2022-08-21T05:53:57;26.90;51.60
7658;DHT22;8462;53.156;8.220;2022-08-21T05:56:25;27.10;50.60
7658;DHT22;8462;53.156;8.220;2022-08-21T05:58:52;27.30;50.30
7658;DHT22;8462;53.156;8.220;2022-08-21T06:01:19;27.70;49.50
7658;DHT22;8462;53.156;8.220;2022-08-21T06:03:46;28.20;48.60
7658;DHT22;8462;53.156;8.220;2022-08-21T06:06:13;28.80;48.60
7658;DHT22;8462;53.156;8.220;2022-08-21T06:08:40;29.10;46.90
7658;DHT22;8462;53.156;8.220;2022-08-21T06:11:07;28.90;46.00
7658;DHT22;8462;53.156;8.220;2022-08-21T06:13:38;29.00;46.20
7658;DHT22;8462;53.156;8.220;2022-08-21T06:16:08;29.30;45.60
7658;DHT22;8462;53.156;8.220;2022-08-21T06:18:37;29.60;46.30
7658;DHT22;8462;53.156;8.220;2022-08-21T06:21:04;29.90;45.80
7658;DHT22;8462;53.156;8.220;2022-08-21T06:23:31;30.30;45.70
7658;DHT22;8462;53.156;8.220;2022-08-21T06:25:58;30.60;44.40
7658;DHT22;8462;53.156;8.220;2022-08-21T06:28:25;30.70;43.50
7658;DHT22;8462;53.156;8.220;2022-08-21T06:30:53;30.40;44.00
7658;DHT22;8462;53.156;8.220;2022-08-21T06:33:20;30.30;44.20
7658;DHT22;8462;53.156;8.220;2022-08-21T06:35:47;30.50;44.60
7658;DHT22;8462;53.156;8.220;2022-08-21T06:38:14;30.60;43.90
7658;DHT22;8462;53.156;8.220;2022-08-21T06:40:42;30.70;43.50
7658;DHT22;8462;53.156;8.220;2022-08-21T06:43:11;30.90;43.50
7658;DHT22;8462;53.156;8.220;2022-08-21T06:45:38;31.00;42.70
7658;DHT22;8462;53.156;8.220;2022-08-21T06:48:06;31.30;43.00
7658;DHT22;8462;53.156;8.220;2022-08-21T06:50:37;31.60;42.60
7658;DHT22;8462;53.156;8.220;2022-08-21T06:53:06;31.60;42.00
7658;DHT22;8462;53.156;8.220;2022-08-21T06:55:33;31.40;42.50
7658;DHT22;8462;53.156;8.220;2022-08-21T06:58:00;31.40;41.90
7658;DHT22;8462;53.156;8.220;2022-08-21T07:00:28;31.50;42.00
7658;DHT22;8462;53.156;8.220;2022-08-21T07:02:56;31.50;42.70
7658;DHT22;8462;53.156;8.220;2022-08-21T07:05:26;31.60;42.10
7658;DHT22;8462;53.156;8.220;2022-08-21T07:07:53;31.60;41.80
7658;DHT22;8462;53.156;8.220;2022-08-21T07:10:20;31.60;43.40
7658;DHT22;8462;53.156;8.220;2022-08-21T07:12:47;31.90;42.30
7658;DHT22;8462;53.156;8.220;2022-08-21T07:15:14;32.00;41.80
7658;DHT22;8462;53.156;8.220;2022-08-21T07:17:41;31.70;42.20
7658;DHT22;8462;53.156;8.220;2022-08-21T07:20:08;31.70;41.80
7658;DHT22;8462;53.156;8.220;2022-08-21T07:22:37;31.70;42.40
7658;DHT22;8462;53.156;8.220;2022-08-21T07:25:06;31.80;42.20
7658;DHT22;8462;53.156;8.220;2022-08-21T07:27:33;32.20;42.40
7658;DHT22;8462;53.156;8.220;2022-08-21T07:30:00;32.40;42.20
7658;DHT22;8462;53.156;8.220;2022-08-21T07:32:27;32.40;41.40
7658;DHT22;8462;53.156;8.220;2022-08-21T07:34:54;31.80;40.40
7658;DHT22;8462;53.156;8.220;2022-08-21T07:37:21;31.00;42.00
7658;DHT22;8462;53.156;8.220;2022-08-21T07:39:50;30.20;42.70
7658;DHT22;8462;53.156;8.220;2022-08-21T07:42:17;29.20;43.90
7658;DHT22;8462;53.156;8.220;2022-08-21T07:44:44;28.30;45.60
7658;DHT22;8462;53.156;8.220;2022-08-21T07:47:11;27.60;47.10
7658;DHT22;8462;53.156;8.220;2022-08-21T07:49:38;27.00;48.50
7658;DHT22;8462;53.156;8.220;2022-08-21T07:52:05;26.50;49.60
7658;DHT22;8462;53.156;8.220;2022-08-21T07:54:32;26.10;50.30
7658;DHT22;8462;53.156;8.220;2022-08-21T07:57:00;25.70;51.50
7658;DHT22;8462;53.156;8.220;2022-08-21T07:59:28;25.40;52.50
7658;DHT22;8462;53.156;8.220;2022-08-21T08:01:55;25.10;53.30
7658;DHT22;8462;53.156;8.220;2022-08-21T08:04:22;25.00;54.30
7658;DHT22;8462;53.156;8.220;2022-08-21T08:06:49;24.80;54.60
7658;DHT22;8462;53.156;8.220;2022-08-21T08:09:16;24.70;55.00
7658;DHT22;8462;53.156;8.220;2022-08-21T08:11:44;24.70;55.60
7658;DHT22;8462;53.156;8.220;2022-08-21T08:14:12;24.70;55.90
7658;DHT22;8462;53.156;8.220;2022-08-21T08:16:39;24.60;56.30
7658;DHT22;8462;53.156;8.220;2022-08-21T08:19:06;24.60;56.30
7658;DHT22;8462;53.156;8.220;2022-08-21T08:21:33;24.60;56.50
7658;DHT22;8462;53.156;8.220;2022-08-21T08:24:01;24.80;56.40
7658;DHT22;8462;53.156;8.220;2022-08-21T08:26:28;24.90;56.20
7658;DHT22;8462;53.156;8.220;2022-08-21T08:28:55;25.00;55.90
7658;DHT22;8462;53.156;8.220;2022-08-21T08:31:23;25.00;55.50
7658;DHT22;8462;53.156;8.220;2022-08-21T08:33:51;25.00;55.40
7658;DHT22;8462;53.156;8.220;2022-08-21T08:36:18;25.00;55.10
7658;DHT22;8462;53.156;8.220;2022-08-21T08:38:46;25.00;55.40
7658;DHT22;8462;53.156;8.220;2022-08-21T08:41:15;25.00;54.90
7658;DHT22;8462;53.156;8.220;2022-08-21T08:43:48;25.10;55.10
7658;DHT22;8462;53.156;8.220;2022-08-21T08:46:19;25.20;55.00
7658;DHT22;8462;53.156;8.220;2022-08-21T08:48:52;25.40;54.60
7658;DHT22;8462;53.156;8.220;2022-08-21T08:51:24;25.60;54.20
7658;DHT22;8462;53.156;8.220;2022-08-21T08:53:54;25.70;54.00
7658;DHT22;8462;53.156;8.220;2022-08-21T08:56:29;25.80;53.40
7658;DHT22;8462;53.156;8.220;2022-08-21T08:59:07;25.80;53.10
7658;DHT22;8462;53.156;8.220;2022-08-21T09:01:35;25.90;53.40
7658;DHT22;8462;53.156;8.220;2022-08-21T09:04:03;26.00;52.50
7658;DHT22;8462;53.156;8.220;2022-08-21T09:06:44;26.20;52.40
7658;DHT22;8462;53.156;8.220;2022-08-21T09:09:25;26.50;52.10
7658;DHT22;8462;53.156;8.220;2022-08-21T09:12:01;26.80;51.90
7658;DHT22;8462;53.156;8.220;2022-08-21T09:14:38;27.00;51.30
7658;DHT22;8462;53.156;8.220;2022-08-21T09:17:22;27.30;50.30
7658;DHT22;8462;53.156;8.220;2022-08-21T09:20:01;27.10;49.20
7658;DHT22;8462;53.156;8.220;2022-08-21T09:22:39;27.00;49.40
7658;DHT22;8462;53.156;8.220;2022-08-21T09:25:16;27.20;49.30
7658;DHT22;8462;53.156;8.220;2022-08-21T09:27:45;27.20;48.90
7658;DHT22;8462;53.156;8.220;2022-08-21T09:30:12;27.10;49.10
7658;DHT22;8462;53.156;8.220;2022-08-21T09:32:41;27.10;48.40
7658;DHT22;8462;53.156;8.220;2022-08-21T09:35:12;26.80;49.10
7658;DHT22;8462;53.156;8.220;2022-08-21T09:37:49;26.80;49.10
7658;DHT22;8462;53.156;8.220;2022-08-21T09:40:31;26.90;48.30
7658;DHT22;8462;53.156;8.220;2022-08-21T09:43:00;26.90;48.40
7658;DHT22;8462;53.156;8.220;2022-08-21T09:45:27;27.00;48.40
7658;DHT22;8462;53.156;8.220;2022-08-21T09:47:55;27.10;47.30
7658;DHT22;8462;53.156;8.220;2022-08-21T09:50:25;27.10;46.70
7658;DHT22;8462;53.156;8.220;2022-08-21T09:52:54;27.10;47.20
7658;DHT22;8462;53.156;8.220;2022-08-21T09:55:30;27.20;47.60
7658;DHT22;8462;53.156;8.220;2022-08-21T09:58:16;27.30;47.90
7658;DHT22;8462;53.156;8.220;2022-08-21T10:00:44;27.40;46.70
7658;DHT22;8462;53.156;8.220;2022-08-21T10:03:15;27.30;46.00
7658;DHT22;8462;53.156;8.220;2022-08-21T10:05:58;27.00;46.80
7658;DHT22;8462;53.156;8.220;2022-08-21T10:08:27;26.70;46.70
7658;DHT22;8462;53.156;8.220;2022-08-21T10:11:01;26.60;46.90
7658;DHT22;8462;53.156;8.220;2022-08-21T10:13:37;26.50;47.30
7658;DHT22;8462;53.156;8.220;2022-08-21T10:16:23;26.80;47.50
7658;DHT22;8462;53.156;8.220;2022-08-21T10:19:04;27.10;47.40
7658;DHT22;8462;53.156;8.220;2022-08-21T10:21:41;27.50;47.50
7658;DHT22;8462;53.156;8.220;2022-08-21T10:24:13;27.70;46.90
7658;DHT22;8462;53.156;8.220;2022-08-21T10:26:53;27.70;45.90
7658;DHT22;8462;53.156;8.220;2022-08-21T10:29:35;27.50;46.10
7658;DHT22;8462;53.156;8.220;2022-08-21T10:32:13;27.40;46.60
7658;DHT22;8462;53.156;8.220;2022-08-21T10:34:48;27.30;47.10
7658;DHT22;8462;53.156;8.220;2022-08-21T10:37:25;27.20;47.10
7658;DHT22;8462;53.156;8.220;2022-08-21T10:40:08;26.90;47.20
7658;DHT22;8462;53.156;8.220;2022-08-21T10:42:47;26.80;47.60
7658;DHT22;8462;53.156;8.220;2022-08-21T10:45:25;26.60;47.80
7658;DHT22;8462;53.156;8.220;2022-08-21T10:48:02;26.50;48.20
7658;DHT22;8462;53.156;8.220;2022-08-21T10:50:36;26.70;48.10
7658;DHT22;8462;53.156;8.220;2022-08-21T10:56:02;27.10;47.40
7658;DHT22;8462;53.156;8.220;2022-08-21T10:58:36;27.40;46.80
7658;DHT22;8462;53.156;8.220;2022-08-21T11:01:07;27.50;47.80
7658;DHT22;8462;53.156;8.220;2022-08-21T11:03:41;27.50;46.80
7658;DHT22;8462;53.156;8.220;2022-08-21T11:06:13;27.70;46.40
7658;DHT22;8462;53.156;8.220;2022-08-21T11:08:44;27.80;46.10
7658;DHT22;8462;53.156;8.220;2022-08-21T11:11:18;27.80;44.90
7658;DHT22;8462;53.156;8.220;2022-08-21T11:13:49;27.80;45.20
7658;DHT22;8462;53.156;8.220;2022-08-21T11:16:26;27.70;44.90
7658;DHT22;8462;53.156;8.220;2022-08-21T11:19:02;27.80;44.70
7658;DHT22;8462;53.156;8.220;2022-08-21T11:21:36;27.90;44.90
7658;DHT22;8462;53.156;8.220;2022-08-21T11:24:17;28.10;45.00
7658;DHT22;8462;53.156;8.220;2022-08-21T11:26:51;27.90;45.50
7658;DHT22;8462;53.156;8.220;2022-08-21T11:29:23;27.90;45.60
7658;DHT22;8462;53.156;8.220;2022-08-21T11:32:01;27.70;45.70
7658;DHT22;8462;53.156;8.220;2022-08-21T11:34:39;27.70;45.20
7658;DHT22;8462;53.156;8.220;2022-08-21T11:37:19;27.70;45.40
7658;DHT22;8462;53.156;8.220;2022-08-21T11:39:56;27.80;45.80
7658;DHT22;8462;53.156;8.220;2022-08-21T11:42:30;27.90;45.40
7658;DHT22;8462;53.156;8.220;2022-08-21T11:45:12;28.00;45.30
7658;DHT22;8462;53.156;8.220;2022-08-21T11:47:56;28.00;45.00
7658;DHT22;8462;53.156;8.220;2022-08-21T11:50:27;27.90;44.90
7658;DHT22;8462;53.156;8.220;2022-08-21T11:52:57;27.90;45.30
7658;DHT22;8462;53.156;8.220;2022-08-21T11:55:30;27.90;45.20
7658;DHT22;8462;53.156;8.220;2022-08-21T11:58:03;27.90;45.00
7658;DHT22;8462;53.156;8.220;2022-08-21T12:00:34;28.00;44.60
7658;DHT22;8462;53.156;8.220;2022-08-21T12:03:08;28.10;44.10
7658;DHT22;8462;53.156;8.220;2022-08-21T12:05:39;28.20;43.90
7658;DHT22;8462;53.156;8.220;2022-08-21T12:08:12;28.20;44.30
7658;DHT22;8462;53.156;8.220;2022-08-21T12:10:45;28.40;44.20
7658;DHT22;8462;53.156;8.220;2022-08-21T12:13:23;28.40;43.30
7658;DHT22;8462;53.156;8.220;2022-08-21T12:15:50;28.30;43.30
7658;DHT22;8462;53.156;8.220;2022-08-21T12:18:28;28.30;43.40
7658;DHT22;8462;53.156;8.220;2022-08-21T12:21:04;28.40;42.90
7658;DHT22;8462;53.156;8.220;2022-08-21T12:23:33;28.50;43.00
7658;DHT22;8462;53.156;8.220;2022-08-21T12:26:23;28.50;42.80
7658;DHT22;8462;53.156;8.220;2022-08-21T12:28:51;28.60;42.80
7658;DHT22;8462;53.156;8.220;2022-08-21T12:31:24;28.50;42.80
7658;DHT22;8462;53.156;8.220;2022-08-21T12:33:56;28.50;42.90
7658;DHT22;8462;53.156;8.220;2022-08-21T12:36:42;28.60;42.90
7658;DHT22;8462;53.156;8.220;2022-08-21T12:39:15;28.60;42.40
7658;DHT22;8462;53.156;8.220;2022-08-21T12:41:51;28.50;42.60
7658;DHT22;8462;53.156;8.220;2022-08-21T12:44:26;28.50;42.80
7658;DHT22;8462;53.156;8.220;2022-08-21T12:46:56;28.50;42.50
7658;DHT22;8462;53.156;8.220;2022-08-21T12:49:30;28.50;42.40
7658;DHT22;8462;53.156;8.220;2022-08-21T12:52:03;28.50;41.90
7658;DHT22;8462;53.156;8.220;2022-08-21T12:54:37;28.60;41.50
7658;DHT22;8462;53.156;8.220;2022-08-21T12:57:07;28.60;41.60
7658;DHT22;8462;53.156;8.220;2022-08-21T12:59:37;28.70;42.10
7658;DHT22;8462;53.156;8.220;2022-08-21T13:02:14;28.70;41.90
7658;DHT22;8462;53.156;8.220;2022-08-21T13:04:42;28.70;42.10
7658;DHT22;8462;53.156;8.220;2022-08-21T13:07:11;28.60;41.90
7658;DHT22;8462;53.156;8.220;2022-08-21T13:09:46;28.50;41.90
7658;DHT22;8462;53.156;8.220;2022-08-21T13:12:16;28.40;42.00
7658;DHT22;8462;53.156;8.220;2022-08-21T13:14:51;28.20;42.60
7658;DHT22;8462;53.156;8.220;2022-08-21T13:17:24;28.10;42.80
7658;DHT22;8462;53.156;8.220;2022-08-21T13:19:56;27.90;43.20
7658;DHT22;8462;53.156;8.220;2022-08-21T13:22:24;27.90;43.40
7658;DHT22;8462;53.156;8.220;2022-08-21T13:24:52;27.80;43.30
7658;DHT22;8462;53.156;8.220;2022-08-21T13:27:24;27.80;43.60
7658;DHT22;8462;53.156;8.220;2022-08-21T13:30:09;27.90;43.30
7658;DHT22;8462;53.156;8.220;2022-08-21T13:32:40;27.90;43.30
7658;DHT22;8462;53.156;8.220;2022-08-21T13:35:12;28.00;43.20
7658;DHT22;8462;53.156;8.220;2022-08-21T13:37:43;28.10;42.10
7658;DHT22;8462;53.156;8.220;2022-08-21T13:40:14;28.10;43.10
7658;DHT22;8462;53.156;8.220;2022-08-21T13:42:45;28.00;42.70
7658;DHT22;8462;53.156;8.220;2022-08-21T13:45:17;28.10;42.90
7658;DHT22;8462;53.156;8.220;2022-08-21T13:47:47;28.10;42.90
7658;DHT22;8462;53.156;8.220;2022-08-21T13:50:16;28.10;42.80
7658;DHT22;8462;53.156;8.220;2022-08-21T13:52:54;28.20;42.40
7658;DHT22;8462;53.156;8.220;2022-08-21T13:55:22;28.40;42.10
7658;DHT22;8462;53.156;8.220;2022-08-21T13:58:00;28.50;41.60
7658;DHT22;8462;53.156;8.220;2022-08-21T14:00:29;28.60;41.30
7658;DHT22;8462;53.156;8.220;2022-08-21T14:03:03;28.70;40.80
7658;DHT22;8462;53.156;8.220;2022-08-21T14:05:35;28.70;40.70
7658;DHT22;8462;53.156;8.220;2022-08-21T14:08:06;28.70;40.60
7658;DHT22;8462;53.156;8.220;2022-08-21T14:10:37;28.70;40.80
7658;DHT22;8462;53.156;8.220;2022-08-21T14:13:28;28.70;40.60
7658;DHT22;8462;53.156;8.220;2022-08-21T14:15:57;28.70;40.50
7658;DHT22;8462;53.156;8.220;2022-08-21T14:18:25;28.60;39.60
7658;DHT22;8462;53.156;8.220;2022-08-21T14:21:04;28.50;39.90
7658;DHT22;8462;53.156;8.220;2022-08-21T14:23:33;28.40;40.10
7658;DHT22;8462;53.156;8.220;2022-08-21T14:26:04;28.30;40.40
7658;DHT22;8462;53.156;8.220;2022-08-21T14:28:37;28.40;40.90
7658;DHT22;8462;53.156;8.220;2022-08-21T14:31:14;28.40;40.50
7658;DHT22;8462;53.156;8.220;2022-08-21T14:33:41;28.50;40.30
7658;DHT22;8462;53.156;8.220;2022-08-21T14:36:08;28.50;40.20
7658;DHT22;8462;53.156;8.220;2022-08-21T14:38:38;28.50;40.20
7658;DHT22;8462;53.156;8.220;2022-08-21T14:41:13;28.80;40.10
7658;DHT22;8462;53.156;8.220;2022-08-21T14:43:44;29.00;38.40
7658;DHT22;8462;53.156;8.220;2022-08-21T14:46:22;29.10;38.60
7658;DHT22;8462;53.156;8.220;2022-08-21T14:48:50;29.00;39.10
7658;DHT22;8462;53.156;8.220;2022-08-21T14:51:17;28.90;39.50
7658;DHT22;8462;53.156;8.220;2022-08-21T14:53:46;28.90;39.50
7658;DHT22;8462;53.156;8.220;2022-08-21T14:56:15;28.80;39.90
7658;DHT22;8462;53.156;8.220;2022-08-21T14:58:45;28.80;39.90
7658;DHT22;8462;53.156;8.220;2022-08-21T15:01:16;28.90;39.80
7658;DHT22;8462;53.156;8.220;2022-08-21T15:03:44;29.00;40.00
7658;DHT22;8462;53.156;8.220;2022-08-21T15:06:11;29.00;39.80
7658;DHT22;8462;53.156;8.220;2022-08-21T15:08:39;28.90;39.30
7658;DHT22;8462;53.156;8.220;2022-08-21T15:11:07;28.80;39.60
7658;DHT22;8462;53.156;8.220;2022-08-21T15:13:36;28.70;39.70
7658;DHT22;8462;53.156;8.220;2022-08-21T15:16:09;28.60;39.90
7658;DHT22;8462;53.156;8.220;2022-08-21T15:18:36;28.60;39.90
7658;DHT22;8462;53.156;8.220;2022-08-21T15:21:03;28.50;39.90
7658;DHT22;8462;53.156;8.220;2022-08-21T15:23:30;28.40;39.90
7658;DHT22;8462;53.156;8.220;2022-08-21T15:25:57;28.30;40.20
7658;DHT22;8462;53.156;8.220;2022-08-21T15:28:24;28.20;40.50
7658;DHT22;8462;53.156;8.220;2022-08-21T15:30:52;28.20;40.20
7658;DHT22;8462;53.156;8.220;2022-08-21T15:33:20;28.10;39.90
7658;DHT22;8462;53.156;8.220;2022-08-21T15:35:48;28.10;40.60
7658;DHT22;8462;53.156;8.220;2022-08-21T15:38:15;28.10;41.00
7658;DHT22;8462;53.156;8.220;2022-08-21T15:40:43;28.00;41.30
7658;DHT22;8462;53.156;8.220;2022-08-21T15:43:18;28.00;41.30
7658;DHT22;8462;53.156;8.220;2022-08-21T15:45:47;27.90;41.60
7658;DHT22;8462;53.156;8.220;2022-08-21T15:48:14;27.70;41.70
7658;DHT22;8462;53.156;8.220;2022-08-21T15:50:43;27.60;42.00
7658;DHT22;8462;53.156;8.220;2022-08-21T15:53:10;27.60;42.10
7658;DHT22;8462;53.156;8.220;2022-08-21T15:55:37;27.50;42.10
7658;DHT22;8462;53.156;8.220;2022-08-21T15:58:04;27.40;42.40
7658;DHT22;8462;53.156;8.220;2022-08-21T16:00:34;27.40;42.70
7658;DHT22;8462;53.156;8.220;2022-08-21T16:03:04;27.20;42.60
7658;DHT22;8462;53.156;8.220;2022-08-21T16:05:33;27.20;42.90
7658;DHT22;8462;53.156;8.220;2022-08-21T16:08:01;27.10;43.50
7658;DHT22;8462;53.156;8.220;2022-08-21T16:10:28;27.00;44.80
7658;DHT22;8462;53.156;8.220;2022-08-21T16:12:57;26.90;47.50
7658;DHT22;8462;53.156;8.220;2022-08-21T16:15:25;26.80;48.30
7658;DHT22;8462;53.156;8.220;2022-08-21T16:17:53;26.80;49.30
7658;DHT22;8462;53.156;8.220;2022-08-21T16:20:24;26.70;49.80
7658;DHT22;8462;53.156;8.220;2022-08-21T16:22:53;26.70;50.20